createdAt,value
2023-04-15T00:00:46.878Z,84.85
2023-04-15T00:03:51.289Z,84.33
2023-04-15T00:06:54.820Z,84.45
2023-04-15T00:09:57.925Z,83.91
2023-04-15T00:12:59.782Z,84.14
2023-04-15T00:16:02.346Z,84.40
2023-04-15T00:19:05.002Z,83.93
2023-04-15T00:22:07.203Z,84.02
2023-04-15T00:25:09.639Z,83.83
2023-04-15T00:28:11.748Z,83.56
2023-04-15T00:31:14.356Z,83.73
2023-04-15T00:34:16.782Z,84.01
2023-04-15T00:37:18.729Z,83.77
2023-04-15T00:40:21.960Z,83.74
2023-04-15T00:43:26.559Z,83.51
2023-04-15T00:46:31.143Z,83.35
2023-04-15T00:49:33.286Z,83.16
2023-04-15T00:52:37.321Z,83.63
2023-04-15T00:55:40.151Z,83.28
2023-04-15T00:58:42.143Z,83.34
2023-04-15T01:01:44.749Z,83.40
2023-04-15T01:04:47.219Z,83.19
2023-04-15T01:07:49.417Z,82.86
2023-04-15T01:10:51.255Z,83.08
2023-04-15T01:13:55.197Z,82.84
2023-04-15T01:16:57.650Z,83.15
2023-04-15T01:19:59.576Z,83.09
2023-04-15T01:23:01.562Z,82.83
2023-04-15T01:26:04.221Z,82.63
2023-04-15T01:29:06.825Z,82.97
2023-04-15T01:32:09.099Z,82.70
2023-04-15T01:35:10.991Z,82.50
2023-04-15T01:38:13.711Z,82.52
2023-04-15T01:41:15.658Z,82.46
2023-04-15T01:44:17.710Z,82.56
2023-04-15T01:47:19.674Z,82.64
2023-04-15T01:50:22.676Z,82.46
2023-04-15T01:53:27.678Z,82.46
2023-04-15T01:56:29.955Z,82.54
2023-04-15T01:59:32.289Z,82.28
2023-04-15T02:02:34.668Z,82.62
2023-04-15T02:05:36.720Z,82.85
2023-04-15T02:08:39.287Z,82.23
2023-04-15T02:11:42.644Z,82.32
2023-04-15T02:14:44.459Z,82.67
2023-04-15T02:17:51.078Z,82.76
2023-04-15T02:20:53.267Z,82.91
2023-04-15T02:23:55.115Z,83.14
2023-04-15T02:26:57.546Z,83.40
2023-04-15T02:29:59.469Z,83.38
2023-04-15T02:33:01.989Z,84.00
2023-04-15T02:36:04.480Z,83.87
2023-04-15T02:39:06.447Z,83.75
2023-04-15T02:42:09.278Z,84.18
2023-04-15T02:45:12.998Z,84.12
2023-04-15T02:48:18.145Z,84.23
2023-04-15T02:51:21.705Z,84.79
2023-04-15T02:54:24.891Z,84.71
2023-04-15T02:57:28.706Z,84.62
2023-04-15T03:00:33.488Z,84.51
2023-04-15T03:03:35.573Z,84.72
2023-04-15T03:06:37.652Z,84.59
2023-04-15T03:09:41.318Z,84.77
2023-04-15T03:12:43.774Z,84.89
2023-04-15T03:15:50.863Z,84.78
2023-04-15T03:18:52.839Z,84.48
2023-04-15T03:21:56.388Z,84.34
2023-04-15T03:24:58.503Z,84.25
2023-04-15T03:28:00.790Z,84.45
2023-04-15T03:31:02.737Z,84.41
2023-04-15T03:34:04.719Z,84.17
2023-04-15T03:37:06.890Z,84.32
2023-04-15T03:40:09.864Z,84.29
2023-04-15T03:43:12.305Z,83.92
2023-04-15T03:46:14.246Z,83.95
2023-04-15T03:49:16.446Z,83.69
2023-04-15T03:52:18.392Z,83.67
2023-04-15T03:55:20.773Z,83.94
2023-04-15T03:58:22.667Z,83.80
2023-04-15T04:01:24.677Z,83.70
2023-04-15T04:04:26.837Z,83.69
2023-04-15T04:07:28.983Z,83.43
2023-04-15T04:10:31.087Z,83.03
2023-04-15T04:13:33.086Z,82.84
2023-04-15T04:16:34.962Z,82.71
2023-04-15T04:19:36.902Z,82.92
2023-04-15T04:22:40.195Z,82.85
2023-04-15T04:25:42.554Z,82.72
2023-04-15T04:28:44.432Z,82.67
2023-04-15T04:31:47.059Z,82.59
2023-04-15T04:34:49.008Z,82.53
2023-04-15T04:37:51.035Z,82.52
2023-04-15T04:40:52.974Z,82.63
2023-04-15T04:43:54.892Z,82.15
2023-04-15T04:46:56.767Z,82.19
2023-04-15T04:49:58.654Z,82.02
2023-04-15T04:53:01.261Z,82.58
2023-04-15T04:56:03.658Z,82.66
2023-04-15T04:59:05.976Z,82.02
2023-04-15T05:02:07.943Z,82.27
2023-04-15T05:05:11.820Z,81.96
2023-04-15T05:08:13.712Z,82.07
2023-04-15T05:11:15.606Z,81.64
2023-04-15T05:14:17.573Z,81.79
2023-04-15T05:17:19.396Z,81.38
2023-04-15T05:20:21.447Z,81.46
2023-04-15T05:23:23.450Z,81.03
2023-04-15T05:26:25.439Z,80.86
2023-04-15T05:29:27.461Z,80.79
2023-04-15T05:32:29.382Z,81.01
2023-04-15T05:35:31.326Z,80.88
2023-04-15T05:38:33.365Z,81.39
2023-04-15T05:41:35.313Z,81.24
2023-04-15T05:44:37.238Z,81.92
2023-04-15T05:47:40.226Z,80.82
2023-04-15T05:50:42.603Z,81.39
2023-04-15T05:53:46.046Z,80.71
2023-04-15T05:56:47.987Z,79.78
2023-04-15T05:59:52.441Z,80.36
2023-04-15T06:02:54.944Z,80.45
2023-04-15T06:05:56.834Z,80.73
2023-04-15T06:08:58.769Z,79.68
2023-04-15T06:12:01.988Z,78.57
2023-04-15T06:15:06.741Z,79.11
2023-04-15T06:18:08.597Z,79.73
2023-04-15T06:21:10.707Z,79.49
2023-04-15T06:24:12.936Z,79.91
2023-04-15T06:27:14.863Z,80.05
2023-04-15T06:30:17.162Z,79.99
2023-04-15T06:33:19.050Z,79.96
2023-04-15T06:36:21.224Z,79.16
2023-04-15T06:39:23.143Z,79.25
2023-04-15T06:42:25.133Z,79.32
2023-04-15T06:45:27.451Z,78.52
2023-04-15T06:48:29.430Z,78.05
2023-04-15T06:51:31.643Z,78.03
2023-04-15T06:54:33.557Z,78.11
2023-04-15T06:57:35.463Z,78.18
2023-04-15T07:00:39.334Z,78.34
2023-04-15T07:03:42.108Z,78.35
2023-04-15T07:06:44.703Z,78.58
2023-04-15T07:09:46.654Z,78.17
2023-04-15T07:12:49.408Z,78.54
2023-04-15T07:15:51.374Z,78.71
2023-04-15T07:18:53.220Z,78.46
2023-04-15T07:21:55.150Z,77.97
2023-04-15T07:24:57.051Z,77.81
2023-04-15T07:27:59.050Z,77.61
2023-04-15T07:31:01.223Z,77.86
2023-04-15T07:34:05.259Z,77.17
2023-04-15T07:37:07.429Z,77.01
2023-04-15T07:40:10.170Z,77.07
2023-04-15T07:43:13.565Z,76.92
2023-04-15T07:46:15.636Z,77.04
2023-04-15T07:49:19.417Z,76.76
2023-04-15T07:52:21.242Z,75.67
2023-04-15T07:55:23.603Z,76.00
2023-04-15T07:58:25.862Z,76.58
2023-04-15T08:01:27.853Z,76.76
2023-04-15T08:04:29.962Z,76.26
2023-04-15T08:07:32.732Z,74.86
2023-04-15T08:10:34.811Z,74.60
2023-04-15T08:13:36.656Z,74.54
2023-04-15T08:16:38.715Z,74.06
2023-04-15T08:19:41.050Z,74.12
2023-04-15T08:22:42.845Z,74.78
2023-04-15T08:25:44.744Z,74.38
2023-04-15T08:28:47.157Z,73.97
2023-04-15T08:31:49.173Z,74.20
2023-04-15T08:34:51.112Z,74.21
2023-04-15T08:37:53.003Z,73.89
2023-04-15T08:40:57.369Z,72.99
2023-04-15T08:44:05.189Z,73.61
2023-04-15T08:47:09.470Z,72.56
2023-04-15T08:50:12.011Z,71.66
2023-04-15T08:53:14.983Z,72.06
2023-04-15T08:56:16.997Z,71.92
2023-04-15T08:59:21.407Z,71.45
2023-04-15T09:02:25.860Z,71.92
2023-04-15T09:05:27.840Z,71.15
2023-04-15T09:08:29.646Z,71.14
2023-04-15T09:11:31.599Z,71.18
2023-04-15T09:14:35.022Z,71.08
2023-04-15T09:17:43.194Z,70.81
2023-04-15T09:20:45.066Z,70.40
2023-04-15T09:23:58.506Z,71.00
2023-04-15T09:27:00.655Z,69.73
2023-04-15T09:30:02.484Z,68.31
2023-04-15T09:33:08.966Z,67.66
2023-04-15T09:36:11.021Z,68.25
2023-04-15T09:39:13.224Z,68.03
2023-04-15T09:42:15.236Z,65.67
2023-04-15T09:45:17.247Z,65.32
2023-04-15T09:48:31.174Z,66.16
2023-04-15T09:51:35.833Z,63.47
2023-04-15T09:54:38.806Z,62.31
2023-04-15T09:57:50.080Z,61.93
2023-04-15T10:00:53.300Z,61.16
2023-04-15T10:03:58.009Z,62.92
2023-04-15T10:07:02.225Z,62.46
2023-04-15T10:10:05.522Z,61.23
2023-04-15T10:13:08.265Z,62.13
2023-04-15T10:16:16.278Z,59.39
2023-04-15T10:19:21.969Z,60.92
2023-04-15T10:22:26.506Z,60.74
2023-04-15T10:25:29.639Z,60.86
2023-04-15T10:28:31.731Z,62.02
2023-04-15T10:31:34.257Z,59.28
2023-04-15T10:34:37.193Z,60.42
2023-04-15T10:37:39.145Z,59.66
2023-04-15T10:40:41.242Z,60.29
2023-04-15T10:43:54.194Z,59.58
2023-04-15T10:46:58.941Z,59.33
2023-04-15T10:50:02.482Z,59.55
2023-04-15T10:53:07.458Z,58.20
2023-04-15T10:56:10.628Z,59.27
2023-04-15T10:59:12.520Z,59.50
2023-04-15T11:02:15.616Z,59.71
2023-04-15T11:05:19.059Z,58.81
2023-04-15T11:08:41.079Z,57.83
2023-04-15T11:12:06.257Z,57.97
2023-04-15T11:15:41.776Z,58.60
2023-04-15T11:18:54.343Z,59.61
2023-04-15T11:21:56.962Z,58.14
2023-04-15T11:24:58.824Z,58.15
2023-04-15T11:28:02.224Z,58.17
2023-04-15T11:31:12.022Z,58.02
2023-04-15T11:34:24.149Z,59.02
2023-04-15T11:37:30.438Z,58.28
2023-04-15T11:40:33.592Z,58.73
2023-04-15T11:43:35.657Z,58.99
2023-04-15T11:46:37.494Z,59.30
2023-04-15T11:49:41.680Z,58.71
2023-04-15T11:53:01.499Z,58.50
2023-04-15T11:56:03.430Z,58.63
2023-04-15T11:59:05.326Z,59.27
2023-04-15T12:02:14.363Z,58.71
2023-04-15T12:09:01.290Z,58.60
2023-04-15T12:12:03.353Z,58.77
2023-04-15T12:15:05.680Z,58.52
2023-04-15T12:18:17.881Z,58.04
2023-04-15T12:21:21.176Z,57.80
2023-04-15T12:24:23.613Z,58.58
2023-04-15T12:27:29.270Z,58.40
2023-04-15T12:30:32.457Z,58.79
2023-04-15T12:33:34.966Z,58.03
2023-04-15T12:36:37.334Z,58.24
2023-04-15T12:39:41.591Z,58.01
2023-04-15T12:42:43.465Z,57.37
2023-04-15T12:45:45.321Z,57.89
2023-04-15T12:48:47.589Z,57.25
2023-04-15T12:51:51.140Z,56.79
2023-04-15T12:54:53.715Z,56.85
2023-04-15T12:57:55.554Z,57.69
2023-04-15T13:00:57.551Z,57.96
2023-04-15T13:03:59.589Z,56.66
2023-04-15T13:07:02.508Z,57.14
2023-04-15T13:10:04.389Z,57.10
2023-04-15T13:13:06.387Z,57.10
2023-04-15T13:16:08.488Z,56.38
2023-04-15T13:19:10.418Z,56.64
2023-04-15T13:22:12.596Z,56.43
2023-04-15T13:25:14.553Z,56.54
2023-04-15T13:28:16.509Z,56.25
2023-04-15T13:31:18.461Z,56.86
2023-04-15T13:34:20.385Z,57.54
2023-04-15T13:37:27.412Z,56.92
2023-04-15T13:40:29.361Z,57.58
2023-04-15T13:43:31.842Z,57.13
2023-04-15T13:46:33.888Z,57.21
2023-04-15T13:49:35.763Z,58.33
2023-04-15T13:52:37.736Z,57.45
2023-04-15T13:55:41.800Z,57.77
2023-04-15T13:58:43.822Z,58.24
2023-04-15T14:01:45.783Z,57.77
2023-04-15T14:04:47.707Z,57.87
2023-04-15T14:07:49.656Z,58.09
2023-04-15T14:10:51.573Z,58.33
2023-04-15T14:13:53.434Z,57.99
2023-04-15T14:16:56.749Z,57.87
2023-04-15T14:19:58.751Z,57.58
2023-04-15T14:23:00.990Z,57.68
2023-04-15T14:26:02.862Z,58.02
2023-04-15T14:29:05.136Z,57.58
2023-04-15T14:32:12.310Z,57.98
2023-04-15T14:35:14.816Z,58.06
2023-04-15T14:38:16.993Z,58.43
2023-04-15T14:41:19.728Z,58.48
2023-04-15T14:44:23.095Z,58.62
2023-04-15T14:47:27.070Z,58.71
2023-04-15T14:50:30.664Z,58.84
2023-04-15T14:53:33.251Z,59.01
2023-04-15T14:56:36.350Z,59.92
2023-04-15T14:59:39.669Z,59.85
2023-04-15T15:02:43.197Z,59.67
2023-04-15T15:05:47.796Z,60.06
2023-04-15T15:08:51.352Z,59.49
2023-04-15T15:11:53.710Z,59.62
2023-04-15T15:14:56.367Z,59.97
2023-04-15T15:17:58.973Z,59.87
2023-04-15T15:21:02.685Z,59.67
2023-04-15T15:24:06.588Z,60.27
2023-04-15T15:27:09.701Z,60.14
2023-04-15T15:30:13.502Z,60.03
2023-04-15T15:33:18.507Z,60.72
2023-04-15T15:36:21.905Z,60.36
2023-04-15T15:39:25.363Z,60.59
2023-04-15T15:42:35.058Z,60.78
2023-04-15T15:45:38.677Z,60.73
2023-04-15T15:48:42.093Z,60.96
2023-04-15T15:51:46.436Z,61.13
2023-04-15T15:54:50.372Z,61.23
2023-04-15T15:57:55.092Z,61.28
2023-04-15T16:00:58.757Z,61.46
2023-04-15T16:04:01.763Z,61.71
2023-04-15T16:07:04.539Z,61.73
2023-04-15T16:10:07.081Z,61.88
2023-04-15T16:13:10.408Z,61.75
2023-04-15T16:16:12.493Z,62.15
2023-04-15T16:19:14.410Z,62.35
2023-04-15T16:22:16.419Z,62.10
2023-04-15T16:25:18.584Z,62.53
2023-04-15T16:28:26.456Z,62.62
2023-04-15T16:31:29.060Z,62.78
2023-04-15T16:34:31.102Z,62.91
2023-04-15T16:37:33.417Z,63.19
2023-04-15T16:40:35.306Z,63.13
2023-04-15T16:43:37.265Z,63.38
2023-04-15T16:46:40.875Z,63.49
2023-04-15T16:49:42.996Z,63.45
2023-04-15T16:52:44.855Z,63.25
2023-04-15T16:55:46.806Z,63.42
2023-04-15T16:58:48.711Z,63.56
2023-04-15T17:01:50.817Z,63.45
2023-04-15T17:04:52.746Z,63.50
2023-04-15T17:07:55.240Z,63.52
2023-04-15T17:10:58.220Z,63.44
2023-04-15T17:14:00.125Z,63.59
2023-04-15T17:17:02.088Z,63.96
2023-04-15T17:20:04.633Z,63.74
2023-04-15T17:23:06.669Z,64.09
2023-04-15T17:26:08.751Z,63.92
2023-04-15T17:29:10.632Z,63.98
2023-04-15T17:32:12.611Z,64.14
2023-04-15T17:35:17.054Z,64.21
2023-04-15T17:38:18.920Z,64.28
2023-04-15T17:41:20.860Z,64.37
2023-04-15T17:44:25.073Z,64.08
2023-04-15T17:47:27.962Z,64.30
2023-04-15T17:50:29.966Z,64.25
2023-04-15T17:53:31.885Z,64.06
2023-04-15T17:56:35.263Z,63.86
2023-04-15T17:59:37.285Z,64.00
2023-04-15T18:02:39.788Z,64.06
2023-04-15T18:05:42.786Z,64.07
2023-04-15T18:08:44.722Z,64.16
2023-04-15T18:11:48.452Z,64.23
2023-04-15T18:14:50.629Z,64.25
2023-04-15T18:17:52.710Z,64.20
2023-04-15T18:20:54.633Z,64.33
2023-04-15T18:23:56.623Z,64.33
2023-04-15T18:26:59.296Z,64.04
2023-04-15T18:30:02.478Z,64.18
2023-04-15T18:33:05.575Z,64.25
2023-04-15T18:36:07.649Z,64.38
2023-04-15T18:39:10.129Z,64.57
2023-04-15T18:42:12.209Z,64.72
2023-04-15T18:45:14.328Z,64.74
2023-04-15T18:48:17.696Z,65.13
2023-04-15T18:51:19.683Z,65.31
2023-04-15T18:54:21.755Z,65.39
2023-04-15T18:57:31.268Z,65.25
2023-04-15T19:00:40.500Z,65.44
2023-04-15T19:03:43.499Z,65.46
2023-04-15T19:06:46.649Z,65.55
2023-04-15T19:09:49.125Z,65.69
2023-04-15T19:12:51.076Z,65.84
2023-04-15T19:15:53.063Z,65.59
2023-04-15T19:18:54.968Z,65.84
2023-04-15T19:21:56.855Z,66.19
2023-04-15T19:24:58.897Z,66.21
2023-04-15T19:28:00.770Z,66.75
2023-04-15T19:31:04.065Z,66.59
2023-04-15T19:34:06.456Z,66.92
2023-04-15T19:37:08.428Z,67.02
2023-04-15T19:40:10.719Z,66.63
2023-04-15T19:43:12.678Z,67.07
2023-04-15T19:46:14.727Z,67.31
2023-04-15T19:49:16.893Z,67.30
2023-04-15T19:52:18.818Z,68.01
2023-04-15T19:55:20.994Z,67.93
2023-04-15T19:58:22.877Z,67.87
2023-04-15T20:01:24.751Z,68.03
2023-04-15T20:04:27.449Z,68.13
2023-04-15T20:07:29.449Z,68.31
2023-04-15T20:10:31.907Z,68.00
2023-04-15T20:13:33.919Z,68.16
2023-04-15T20:16:38.331Z,68.42
2023-04-15T20:19:40.257Z,68.14
2023-04-15T20:22:42.467Z,68.37
2023-04-15T20:25:45.458Z,68.55
2023-04-15T20:28:47.263Z,68.78
2023-04-15T20:31:49.200Z,68.91
2023-04-15T20:34:51.300Z,69.05
2023-04-15T20:37:53.390Z,69.32
2023-04-15T20:40:55.279Z,69.36
2023-04-15T20:43:57.114Z,69.51
2023-04-15T20:46:58.950Z,69.70
2023-04-15T20:50:00.998Z,70.04
2023-04-15T20:53:04.461Z,70.37
2023-04-15T20:56:06.575Z,70.26
2023-04-15T20:59:08.488Z,70.78
2023-04-15T21:02:10.689Z,70.72
2023-04-15T21:05:12.644Z,70.59
2023-04-15T21:08:14.581Z,71.15
2023-04-15T21:11:28.421Z,71.07
2023-04-15T21:14:40.665Z,71.13
2023-04-15T21:17:42.665Z,71.55
2023-04-15T21:20:44.673Z,71.65
2023-04-15T21:23:46.609Z,71.45
2023-04-15T21:26:48.560Z,71.58
2023-04-15T21:29:50.471Z,71.63
2023-04-15T21:32:52.398Z,71.58
2023-04-15T21:35:54.698Z,71.38
2023-04-15T21:38:56.604Z,71.75
2023-04-15T21:41:59.623Z,71.75
2023-04-15T21:45:01.482Z,71.67
2023-04-15T21:48:08.044Z,71.92
2023-04-15T21:51:10.514Z,71.90
2023-04-15T21:54:12.353Z,71.94
2023-04-15T21:57:14.308Z,72.30
2023-04-15T22:00:16.564Z,72.42
2023-04-15T22:03:18.705Z,72.61
2023-04-15T22:06:21.153Z,72.86
2023-04-15T22:09:23.090Z,73.05
2023-04-15T22:12:25.021Z,73.33
2023-04-15T22:15:27.498Z,73.30
2023-04-15T22:18:29.302Z,73.79
2023-04-15T22:21:31.976Z,73.52
2023-04-15T22:24:40.452Z,73.87
2023-04-15T22:27:42.644Z,73.72
2023-04-15T22:30:44.553Z,74.43
2023-04-15T22:33:46.482Z,74.63
2023-04-15T22:36:49.391Z,74.95
2023-04-15T22:39:51.998Z,74.96
2023-04-15T22:42:53.884Z,75.32
2023-04-15T22:45:56.697Z,75.09
2023-04-15T22:48:58.644Z,75.21
2023-04-15T22:52:00.713Z,75.22
2023-04-15T22:55:02.709Z,75.59
2023-04-15T22:58:04.686Z,75.27
2023-04-15T23:01:06.617Z,75.34
2023-04-15T23:04:09.522Z,75.37
2023-04-15T23:07:13.013Z,75.50
2023-04-15T23:10:14.877Z,75.31
2023-04-15T23:13:16.742Z,75.13
2023-04-15T23:16:18.800Z,75.13
2023-04-15T23:19:20.818Z,74.70
2023-04-15T23:22:22.742Z,75.05
2023-04-15T23:25:24.582Z,75.02
2023-04-15T23:28:26.444Z,75.13
2023-04-15T23:31:28.332Z,74.94
2023-04-15T23:34:30.298Z,74.98
2023-04-15T23:37:32.196Z,74.29
2023-04-15T23:40:34.171Z,74.76
2023-04-15T23:43:36.157Z,74.75
2023-04-15T23:46:38.064Z,74.78
2023-04-15T23:49:41.082Z,74.57
2023-04-15T23:52:42.933Z,74.59
2023-04-15T23:55:44.749Z,74.21
2023-04-15T23:58:46.675Z,75.11
